Anniston Metropolitan Airport
KANB : now visible

Airfield :











YOU CAN JOIN US ON...

 
LOGIN :

Register | Disclaimer

   EN    FR    IT 

 









Legend :    VFR   Marginal VFR   IFR   Intensive IFR   Very Intensive IFR
Visi :
Ceiling :
>= 8 km
>= 3000ft
5 to 8 km
1000 to 3000 ft
1500m to 5 km
500 to 1000 ft
800 to 1500m
200 to 500 ft
< 800m
< 200 ft
Symbols :   Thunderstorms  Fog  Heavy snow  Heavy precipitations  Wind > 20 kt






- Airport Elevation : 612 ft
- IATA code : ANB


KANB - Anniston Metropolitan

CURRENT METAR :
  • 241824Z AUTO 08004KT 10SM SCT025 BKN033 BKN040 27/21 A3006 RMK AO2 T02670206

EXPIRED METARs :
  • 241753Z AUTO VRB03KT 10SM BKN027 27/21 A3007 RMK AO2 SLP173 T02670206 10272 20206 55006
  • 241653Z AUTO VRB04KT 10SM CLR 26/21 A3007 RMK AO2 SLP173 T02610206
  • 241553Z AUTO VRB03KT 10SM FEW095 24/20 A3008 RMK AO2 SLP179 T02390200

TAF KANB
Valid from the 24 at 18:00 until the 25 at 18:00 UTC


241738Z 2418/2518 VRB03KT P6SM VCSH BKN080
TEMPO 2501/2503 4SM TSRA BR OVC025CB
FM250400 VRB04KT P6SM BKN100
FM250600 12005KT P6SM BKN025
FM251200 11007KT P6SM OVC018
KZTL FIR / North America



MET'MAP, your aeronautical weather chart ! - Copyright ORBIFLY December 2007 - Disclaimer

ORBIFLY MET'MAP TEAM :

Programming & Development : Alexandra Zaïnal
Original concept : Baudouin d'Aumeries
Technical & hardware support : Manuel Goepfert
Assistance : Marc-Olivier Méhu

Contact : metmap@orbifly.com




SOURCES & CREDITS :

   NOAA       Earth
Advisory